Grand Celebration — C6BP6 — position and weather

sailwx.info

Track history (hours):
 
Tides and Currents Weather Stations Pressure Air Temp Water Temp Dewpoint Dewpoint Depression Visibility Wind Speed Wind Dir Waves Ship Positions

Grand Celebration

Last reported at 2018-Jan-22 15:08 UTC. Time now 2018-Jan-22 15:52 UTC.
Position N 26°46' W 080°03'.

Length 223 m; draft 8 m.

Type: Ship. MMSI: 311000328.

Date/timePositionNaut miles runAvg speedWind from/ knotsBaromVisibWave heightAir tempDewpointWater temp
2018-Jan-22 15:08N 26°46' W 080°03'0 0.0
2018-Jan-22 14:41N 26°46' W 080°03'0 0.0
2018-Jan-22 14:30N 26°46' W 080°03'0 0.0
2018-Jan-22 13:56N 26°46' W 080°03'10 0.3
2018-Jan-21 05:36N 26°44' W 079°53'1 9.1
2018-Jan-21 05:30N 26°44' W 079°54'4 8.8
2018-Jan-21 05:00N 26°45' W 079°58'4 7.7
2018-Jan-21 04:30N 26°46' W 080°02'1 0.1
2018-Jan-20 19:39N 26°46' W 080°03'0 0.0
2018-Jan-20 15:31N 26°46' W 080°03'0 0.0
2018-Jan-20 15:22N 26°46' W 080°03'0 0.0
2018-Jan-20 14:43N 26°46' W 080°03'0 0.0
2018-Jan-20 14:28N 26°46' W 080°03'0 0.0
2018-Jan-20 14:01N 26°46' W 080°03'0 0.0
2018-Jan-20 13:27N 26°46' W 080°03'0 0.0
2018-Jan-18 14:20N 26°46' W 080°03'0 0.0
2018-Jan-18 13:56N 26°46' W 080°03'0 0.0
2018-Jan-18 12:34N 26°46' W 080°03'0 0.0
2018-Jan-18 12:21N 26°46' W 080°03'1 2.3
2018-Jan-18 12:01N 26°46' W 080°02'7 9.1
2018-Jan-18 11:14N 26°44' W 079°55'2 8.3
2018-Jan-18 11:00N 26°44' W 079°53'  
Track history (hours):
 
Tides and Currents Weather Stations Pressure Air Temp Water Temp Dewpoint Dewpoint Depression Visibility Wind Speed Wind Dir Waves Ship Positions

Grand Celebration

Last reported at 2018-Jan-22 15:08 UTC. Time now 2018-Jan-22 15:52 UTC.
Position N 26°46' W 080°03'.

Length 223 m; draft 8 m.

Type: Ship. MMSI: 311000328.

Date/timePositionNaut miles runAvg speedWind from/ knotsBaromVisibWave heightAir tempDewpointWater temp
2018-Jan-22 15:08N 26°46' W 080°03'0 0.0
2018-Jan-22 14:41N 26°46' W 080°03'0 0.0
2018-Jan-22 14:30N 26°46' W 080°03'0 0.0
2018-Jan-22 13:56N 26°46' W 080°03'10 0.3
2018-Jan-21 05:36N 26°44' W 079°53'1 9.1
2018-Jan-21 05:30N 26°44' W 079°54'4 8.8
2018-Jan-21 05:00N 26°45' W 079°58'4 7.7
2018-Jan-21 04:30N 26°46' W 080°02'1 0.1
2018-Jan-20 19:39N 26°46' W 080°03'0 0.0
2018-Jan-20 15:31N 26°46' W 080°03'0 0.0
2018-Jan-20 15:22N 26°46' W 080°03'0 0.0
2018-Jan-20 14:43N 26°46' W 080°03'0 0.0
2018-Jan-20 14:28N 26°46' W 080°03'0 0.0
2018-Jan-20 14:01N 26°46' W 080°03'0 0.0
2018-Jan-20 13:27N 26°46' W 080°03'0 0.0
2018-Jan-18 14:20N 26°46' W 080°03'0 0.0
2018-Jan-18 13:56N 26°46' W 080°03'0 0.0
2018-Jan-18 12:34N 26°46' W 080°03'0 0.0
2018-Jan-18 12:21N 26°46' W 080°03'1 2.3
2018-Jan-18 12:01N 26°46' W 080°02'7 9.1
2018-Jan-18 11:14N 26°44' W 079°55'2 8.3
2018-Jan-18 11:00N 26°44' W 079°53'  

Dump ship's entire track history